sensor_id;sensor_type;location;lat;lon;timestamp;pressure;altitude;pressure_sealevel;temperature;humidity
9764;BME280;4921;43.214;27.936;2022-07-03T00:00:44;101339.66;;;23.55;82.80
9764;BME280;4921;43.214;27.936;2022-07-03T00:03:10;101342.09;;;23.50;85.89
9764;BME280;4921;43.214;27.936;2022-07-03T00:05:38;101351.47;;;23.39;85.58
9764;BME280;4921;43.214;27.936;2022-07-03T00:08:05;101337.28;;;23.31;81.82
9764;BME280;4921;43.214;27.936;2022-07-03T00:10:32;101348.69;;;23.33;79.80
9764;BME280;4921;43.214;27.936;2022-07-03T00:13:00;101343.00;;;23.28;80.92
9764;BME280;4921;43.214;27.936;2022-07-03T00:15:27;101334.59;;;23.31;80.36
9764;BME280;4921;43.214;27.936;2022-07-03T00:17:55;101344.97;;;23.34;79.14
9764;BME280;4921;43.214;27.936;2022-07-03T00:20:24;101336.56;;;23.37;77.51
9764;BME280;4921;43.214;27.936;2022-07-03T00:22:58;101338.91;;;23.46;81.81
9764;BME280;4921;43.214;27.936;2022-07-03T00:25:31;101332.81;;;23.38;79.58
9764;BME280;4921;43.214;27.936;2022-07-03T00:27:59;101332.06;;;23.29;80.86
9764;BME280;4921;43.214;27.936;2022-07-03T00:30:27;101326.44;;;23.24;81.74
9764;BME280;4921;43.214;27.936;2022-07-03T00:32:56;101321.88;;;23.25;81.71
9764;BME280;4921;43.214;27.936;2022-07-03T00:35:23;101326.44;;;23.24;81.70
9764;BME280;4921;43.214;27.936;2022-07-03T00:37:50;101327.38;;;23.17;82.21
9764;BME280;4921;43.214;27.936;2022-07-03T00:40:17;101324.78;;;23.09;82.52
9764;BME280;4921;43.214;27.936;2022-07-03T00:42:49;101325.44;;;23.11;82.48
9764;BME280;4921;43.214;27.936;2022-07-03T00:45:19;101331.53;;;23.05;83.19
9764;BME280;4921;43.214;27.936;2022-07-03T00:47:47;101328.31;;;23.09;85.67
9764;BME280;4921;43.214;27.936;2022-07-03T00:50:16;101326.53;;;23.02;87.46
9764;BME280;4921;43.214;27.936;2022-07-03T00:52:46;101328.78;;;22.98;91.03
9764;BME280;4921;43.214;27.936;2022-07-03T00:55:15;101326.53;;;23.02;89.42
9764;BME280;4921;43.214;27.936;2022-07-03T00:57:44;101327.94;;;22.98;88.35
9764;BME280;4921;43.214;27.936;2022-07-03T01:00:13;101320.97;;;23.03;89.01
9764;BME280;4921;43.214;27.936;2022-07-03T01:02:46;101320.34;;;23.01;88.63
9764;BME280;4921;43.214;27.936;2022-07-03T01:05:26;101323.75;;;22.95;93.12
9764;BME280;4921;43.214;27.936;2022-07-03T01:08:02;101320.16;;;22.88;92.37
9764;BME280;4921;43.214;27.936;2022-07-03T01:10:45;101315.63;;;22.89;89.79
9764;BME280;4921;43.214;27.936;2022-07-03T01:13:18;101315.81;;;22.87;90.14
9764;BME280;4921;43.214;27.936;2022-07-03T01:15:54;101318.09;;;22.75;95.28
9764;BME280;4921;43.214;27.936;2022-07-03T01:18:40;101313.94;;;22.73;93.71
9764;BME280;4921;43.214;27.936;2022-07-03T01:21:16;101310.91;;;22.76;93.61
9764;BME280;4921;43.214;27.936;2022-07-03T01:26:45;101305.81;;;22.66;97.98
9764;BME280;4921;43.214;27.936;2022-07-03T01:29:21;101318.75;;;22.63;96.80
9764;BME280;4921;43.214;27.936;2022-07-03T01:31:48;101318.41;;;22.66;96.82
9764;BME280;4921;43.214;27.936;2022-07-03T01:34:19;101309.97;;;22.69;97.35
9764;BME280;4921;43.214;27.936;2022-07-03T01:36:47;101313.03;;;22.66;98.51
9764;BME280;4921;43.214;27.936;2022-07-03T01:39:16;101308.03;;;22.63;100.00
9764;BME280;4921;43.214;27.936;2022-07-03T01:41:47;101296.94;;;22.66;100.00
9764;BME280;4921;43.214;27.936;2022-07-03T01:44:15;101309.50;;;22.65;100.00
9764;BME280;4921;43.214;27.936;2022-07-03T01:46:44;101304.34;;;22.64;100.00
9764;BME280;4921;43.214;27.936;2022-07-03T01:49:13;101307.03;;;22.64;100.00
9764;BME280;4921;43.214;27.936;2022-07-03T01:51:42;101307.19;;;22.62;100.00
9764;BME280;4921;43.214;27.936;2022-07-03T01:54:10;101308.03;;;22.63;100.00
9764;BME280;4921;43.214;27.936;2022-07-03T01:56:37;101302.00;;;22.61;100.00
9764;BME280;4921;43.214;27.936;2022-07-03T01:59:06;101303.69;;;22.62;100.00
9764;BME280;4921;43.214;27.936;2022-07-03T02:01:41;101308.03;;;22.63;100.00
9764;BME280;4921;43.214;27.936;2022-07-03T02:04:14;101308.66;;;22.65;100.00
9764;BME280;4921;43.214;27.936;2022-07-03T02:06:53;101309.84;;;22.62;100.00
9764;BME280;4921;43.214;27.936;2022-07-03T02:09:32;101308.03;;;22.63;100.00
9764;BME280;4921;43.214;27.936;2022-07-03T02:12:03;101304.16;;;22.65;100.00
9764;BME280;4921;43.214;27.936;2022-07-03T02:14:36;101304.97;;;22.66;100.00
9764;BME280;4921;43.214;27.936;2022-07-03T02:17:08;101300.91;;;22.70;100.00
9764;BME280;4921;43.214;27.936;2022-07-03T02:19:43;101298.22;;;22.70;100.00
9764;BME280;4921;43.214;27.936;2022-07-03T02:22:19;101305.09;;;22.72;100.00
9764;BME280;4921;43.214;27.936;2022-07-03T02:24:46;101299.34;;;22.75;100.00
9764;BME280;4921;43.214;27.936;2022-07-03T02:27:16;101307.47;;;22.82;100.00
9764;BME280;4921;43.214;27.936;2022-07-03T02:29:49;101301.47;;;22.95;100.00
9764;BME280;4921;43.214;27.936;2022-07-03T02:32:21;101302.03;;;23.05;100.00
9764;BME280;4921;43.214;27.936;2022-07-03T02:34:55;101299.59;;;23.10;100.00
9764;BME280;4921;43.214;27.936;2022-07-03T02:37:28;101297.84;;;23.17;100.00
9764;BME280;4921;43.214;27.936;2022-07-03T02:40:02;101296.72;;;23.26;100.00
9764;BME280;4921;43.214;27.936;2022-07-03T02:42:35;101297.16;;;23.29;100.00
9764;BME280;4921;43.214;27.936;2022-07-03T02:45:08;101289.06;;;23.37;100.00
9764;BME280;4921;43.214;27.936;2022-07-03T02:47:43;101300.03;;;23.42;100.00
9764;BME280;4921;43.214;27.936;2022-07-03T02:50:16;101301.09;;;23.41;100.00
9764;BME280;4921;43.214;27.936;2022-07-03T02:52:52;101309.69;;;23.37;100.00
9764;BME280;4921;43.214;27.936;2022-07-03T02:55:39;101296.28;;;23.37;100.00
9764;BME280;4921;43.214;27.936;2022-07-03T03:01:07;101305.97;;;23.38;100.00
9764;BME280;4921;43.214;27.936;2022-07-03T03:03:35;101304.03;;;23.32;100.00
9764;BME280;4921;43.214;27.936;2022-07-03T03:06:04;101307.38;;;23.34;100.00
9764;BME280;4921;43.214;27.936;2022-07-03T03:08:42;101309.91;;;23.35;100.00
9764;BME280;4921;43.214;27.936;2022-07-03T03:11:17;101303.50;;;23.36;100.00
9764;BME280;4921;43.214;27.936;2022-07-03T03:13:50;101308.50;;;23.39;100.00
9764;BME280;4921;43.214;27.936;2022-07-03T03:16:21;101306.53;;;23.48;100.00
9764;BME280;4921;43.214;27.936;2022-07-03T03:18:48;101314.19;;;23.51;100.00
9764;BME280;4921;43.214;27.936;2022-07-03T03:21:17;101315.09;;;23.58;100.00
9764;BME280;4921;43.214;27.936;2022-07-03T03:23:45;101317.22;;;23.63;100.00
9764;BME280;4921;43.214;27.936;2022-07-03T03:26:14;101317.66;;;23.66;100.00
9764;BME280;4921;43.214;27.936;2022-07-03T03:28:41;101315.91;;;23.73;100.00
9764;BME280;4921;43.214;27.936;2022-07-03T03:31:09;101316.53;;;23.75;100.00
9764;BME280;4921;43.214;27.936;2022-07-03T03:33:41;101305.59;;;23.77;100.00
9764;BME280;4921;43.214;27.936;2022-07-03T03:36:09;101310.59;;;23.80;100.00
9764;BME280;4921;43.214;27.936;2022-07-03T03:38:37;101317.25;;;23.84;100.00
9764;BME280;4921;43.214;27.936;2022-07-03T03:41:05;101321.97;;;23.82;100.00
9764;BME280;4921;43.214;27.936;2022-07-03T03:43:33;101320.06;;;23.76;100.00
9764;BME280;4921;43.214;27.936;2022-07-03T03:46:00;101320.81;;;23.70;100.00
9764;BME280;4921;43.214;27.936;2022-07-03T03:48:28;101325.16;;;23.71;100.00
9764;BME280;4921;43.214;27.936;2022-07-03T03:50:57;101323.03;;;23.66;100.00
9764;BME280;4921;43.214;27.936;2022-07-03T03:53:25;101313.91;;;23.61;100.00
9764;BME280;4921;43.214;27.936;2022-07-03T03:55:54;101318.88;;;23.64;100.00
9764;BME280;4921;43.214;27.936;2022-07-03T03:58:25;101321.75;;;23.62;100.00
9764;BME280;4921;43.214;27.936;2022-07-03T04:00:52;101322.28;;;23.72;100.00
9764;BME280;4921;43.214;27.936;2022-07-03T04:03:21;101322.19;;;23.80;100.00
9764;BME280;4921;43.214;27.936;2022-07-03T04:05:48;101328.25;;;23.89;100.00
9764;BME280;4921;43.214;27.936;2022-07-03T04:08:16;101318.22;;;23.97;100.00
9764;BME280;4921;43.214;27.936;2022-07-03T04:10:43;101313.91;;;24.03;100.00
9764;BME280;4921;43.214;27.936;2022-07-03T04:13:10;101321.25;;;24.09;100.00
9764;BME280;4921;43.214;27.936;2022-07-03T04:15:37;101322.78;;;24.18;100.00
9764;BME280;4921;43.214;27.936;2022-07-03T04:18:04;101328.69;;;24.28;100.00
9764;BME280;4921;43.214;27.936;2022-07-03T04:20:31;101316.31;;;24.34;100.00
9764;BME280;4921;43.214;27.936;2022-07-03T04:22:59;101324.22;;;24.42;100.00
9764;BME280;4921;43.214;27.936;2022-07-03T04:25:28;101322.03;;;24.52;100.00
9764;BME280;4921;43.214;27.936;2022-07-03T04:27:55;101319.41;;;24.58;100.00
9764;BME280;4921;43.214;27.936;2022-07-03T04:30:22;101322.31;;;24.63;100.00
9764;BME280;4921;43.214;27.936;2022-07-03T04:32:49;101315.13;;;24.70;100.00
9764;BME280;4921;43.214;27.936;2022-07-03T04:35:17;101324.53;;;24.81;100.00
9764;BME280;4921;43.214;27.936;2022-07-03T04:37:44;101325.22;;;24.89;100.00
9764;BME280;4921;43.214;27.936;2022-07-03T04:40:12;101330.25;;;24.99;100.00
9764;BME280;4921;43.214;27.936;2022-07-03T04:42:40;101331.31;;;25.05;100.00
9764;BME280;4921;43.214;27.936;2022-07-03T04:45:07;101325.97;;;25.11;100.00
9764;BME280;4921;43.214;27.936;2022-07-03T04:47:34;101331.16;;;25.19;100.00
9764;BME280;4921;43.214;27.936;2022-07-03T04:50:02;101331.41;;;25.24;100.00
9764;BME280;4921;43.214;27.936;2022-07-03T04:52:29;101334.13;;;25.31;100.00
9764;BME280;4921;43.214;27.936;2022-07-03T04:54:56;101325.47;;;25.35;100.00
9764;BME280;4921;43.214;27.936;2022-07-03T04:57:23;101331.47;;;25.37;100.00
9764;BME280;4921;43.214;27.936;2022-07-03T04:59:51;101330.69;;;25.43;100.00
9764;BME280;4921;43.214;27.936;2022-07-03T05:02:18;101336.94;;;25.50;100.00
9764;BME280;4921;43.214;27.936;2022-07-03T05:04:45;101332.81;;;25.54;100.00
9764;BME280;4921;43.214;27.936;2022-07-03T05:07:12;101334.69;;;25.60;100.00
9764;BME280;4921;43.214;27.936;2022-07-03T05:09:39;101337.41;;;25.67;100.00
9764;BME280;4921;43.214;27.936;2022-07-03T05:12:08;101333.47;;;25.69;100.00
9764;BME280;4921;43.214;27.936;2022-07-03T05:14:35;101330.19;;;25.74;100.00
9764;BME280;4921;43.214;27.936;2022-07-03T05:17:03;101338.28;;;25.81;100.00
9764;BME280;4921;43.214;27.936;2022-07-03T05:19:30;101333.94;;;25.86;100.00
9764;BME280;4921;43.214;27.936;2022-07-03T05:21:57;101342.19;;;25.71;100.00
9764;BME280;4921;43.214;27.936;2022-07-03T05:24:24;101327.06;;;25.64;100.00
9764;BME280;4921;43.214;27.936;2022-07-03T05:26:51;101335.75;;;25.66;100.00
9764;BME280;4921;43.214;27.936;2022-07-03T05:29:19;101337.84;;;25.70;100.00
9764;BME280;4921;43.214;27.936;2022-07-03T05:31:46;101341.38;;;25.84;100.00
9764;BME280;4921;43.214;27.936;2022-07-03T05:34:14;101339.72;;;25.77;100.00
9764;BME280;4921;43.214;27.936;2022-07-03T05:36:41;101348.47;;;25.85;100.00
9764;BME280;4921;43.214;27.936;2022-07-03T05:39:08;101345.94;;;25.84;100.00
9764;BME280;4921;43.214;27.936;2022-07-03T05:41:52;101340.59;;;25.97;100.00
9764;BME280;4921;43.214;27.936;2022-07-03T05:44:19;101346.19;;;25.95;100.00
9764;BME280;4921;43.214;27.936;2022-07-03T05:46:46;101345.97;;;25.90;100.00
9764;BME280;4921;43.214;27.936;2022-07-03T05:49:14;101355.97;;;25.96;100.00
9764;BME280;4921;43.214;27.936;2022-07-03T05:51:41;101357.78;;;25.83;100.00
9764;BME280;4921;43.214;27.936;2022-07-03T05:54:09;101361.50;;;25.82;100.00
9764;BME280;4921;43.214;27.936;2022-07-03T05:56:36;101362.34;;;25.89;100.00
9764;BME280;4921;43.214;27.936;2022-07-03T05:59:03;101356.09;;;25.75;100.00
9764;BME280;4921;43.214;27.936;2022-07-03T06:01:30;101364.66;;;25.92;100.00
9764;BME280;4921;43.214;27.936;2022-07-03T06:03:58;101373.56;;;25.99;100.00
9764;BME280;4921;43.214;27.936;2022-07-03T06:06:26;101361.09;;;25.85;100.00
9764;BME280;4921;43.214;27.936;2022-07-03T06:08:53;101362.97;;;25.91;100.00
9764;BME280;4921;43.214;27.936;2022-07-03T06:11:20;101367.94;;;25.81;100.00
9764;BME280;4921;43.214;27.936;2022-07-03T06:13:47;101370.41;;;25.82;100.00
9764;BME280;4921;43.214;27.936;2022-07-03T06:16:14;101367.63;;;25.56;100.00
9764;BME280;4921;43.214;27.936;2022-07-03T06:18:41;101368.94;;;25.73;100.00
9764;BME280;4921;43.214;27.936;2022-07-03T06:21:09;101365.03;;;25.82;100.00
9764;BME280;4921;43.214;27.936;2022-07-03T06:23:37;101376.25;;;25.86;100.00
9764;BME280;4921;43.214;27.936;2022-07-03T06:26:04;101380.81;;;25.85;100.00
9764;BME280;4921;43.214;27.936;2022-07-03T06:28:31;101375.19;;;25.80;100.00
9764;BME280;4921;43.214;27.936;2022-07-03T06:30:58;101377.53;;;25.96;100.00
9764;BME280;4921;43.214;27.936;2022-07-03T06:33:25;101375.75;;;25.69;100.00
9764;BME280;4921;43.214;27.936;2022-07-03T06:35:52;101376.22;;;25.73;100.00
9764;BME280;4921;43.214;27.936;2022-07-03T06:38:19;101380.28;;;25.55;100.00
9764;BME280;4921;43.214;27.936;2022-07-03T06:40:48;101387.31;;;25.56;100.00
9764;BME280;4921;43.214;27.936;2022-07-03T06:43:15;101384.63;;;25.56;100.00
9764;BME280;4921;43.214;27.936;2022-07-03T06:45:42;101380.53;;;25.73;100.00
9764;BME280;4921;43.214;27.936;2022-07-03T06:48:09;101369.16;;;25.78;100.00
9764;BME280;4921;43.214;27.936;2022-07-03T06:50:37;101379.09;;;25.78;100.00
9764;BME280;4921;43.214;27.936;2022-07-03T06:53:06;101393.00;;;25.75;100.00
9764;BME280;4921;43.214;27.936;2022-07-03T06:55:34;101390.34;;;25.81;100.00
9764;BME280;4921;43.214;27.936;2022-07-03T06:58:02;101385.16;;;25.86;100.00
9764;BME280;4921;43.214;27.936;2022-07-03T07:00:29;101387.63;;;25.81;100.00
9764;BME280;4921;43.214;27.936;2022-07-03T07:02:56;101387.44;;;25.83;100.00
9764;BME280;4921;43.214;27.936;2022-07-03T07:05:23;101401.16;;;25.94;100.00
9764;BME280;4921;43.214;27.936;2022-07-03T07:07:50;101388.28;;;25.83;100.00
9764;BME280;4921;43.214;27.936;2022-07-03T07:10:17;101389.72;;;25.92;100.00
9764;BME280;4921;43.214;27.936;2022-07-03T07:12:44;101396.78;;;25.93;100.00
9764;BME280;4921;43.214;27.936;2022-07-03T07:15:12;101394.78;;;26.08;100.00
9764;BME280;4921;43.214;27.936;2022-07-03T07:17:40;101394.50;;;25.97;100.00
9764;BME280;4921;43.214;27.936;2022-07-03T07:20:08;101395.13;;;25.99;100.00
9764;BME280;4921;43.214;27.936;2022-07-03T07:22:35;101388.72;;;26.06;100.00
9764;BME280;4921;43.214;27.936;2022-07-03T07:25:02;101393.84;;;25.88;100.00
9764;BME280;4921;43.214;27.936;2022-07-03T07:27:29;101393.44;;;25.85;100.00
9764;BME280;4921;43.214;27.936;2022-07-03T07:29:56;101382.91;;;25.96;100.00
9764;BME280;4921;43.214;27.936;2022-07-03T07:32:25;101393.06;;;25.94;100.00
9764;BME280;4921;43.214;27.936;2022-07-03T07:34:52;101397.59;;;25.87;100.00
9764;BME280;4921;43.214;27.936;2022-07-03T07:37:18;101398.84;;;25.91;100.00
9764;BME280;4921;43.214;27.936;2022-07-03T07:39:45;101395.47;;;25.69;100.00
9764;BME280;4921;43.214;27.936;2022-07-03T07:42:13;101404.06;;;25.99;100.00
9764;BME280;4921;43.214;27.936;2022-07-03T07:44:41;101410.66;;;25.90;100.00
9764;BME280;4921;43.214;27.936;2022-07-03T07:47:08;101398.00;;;25.84;100.00
9764;BME280;4921;43.214;27.936;2022-07-03T07:49:36;101403.38;;;25.84;100.00
9764;BME280;4921;43.214;27.936;2022-07-03T07:52:04;101404.47;;;25.96;100.00
9764;BME280;4921;43.214;27.936;2022-07-03T07:54:31;101405.13;;;26.05;100.00
9764;BME280;4921;43.214;27.936;2022-07-03T07:56:58;101411.38;;;26.12;100.00
9764;BME280;4921;43.214;27.936;2022-07-03T07:59:25;101415.75;;;26.13;100.00
9764;BME280;4921;43.214;27.936;2022-07-03T08:01:52;101404.28;;;25.98;100.00
9764;BME280;4921;43.214;27.936;2022-07-03T08:04:37;101413.16;;;25.85;100.00
9764;BME280;4921;43.214;27.936;2022-07-03T08:07:22;101419.56;;;25.84;100.00
9764;BME280;4921;43.214;27.936;2022-07-03T08:09:49;101415.69;;;26.00;100.00
9764;BME280;4921;43.214;27.936;2022-07-03T08:12:18;101415.69;;;26.06;100.00
9764;BME280;4921;43.214;27.936;2022-07-03T08:14:45;101414.66;;;26.01;100.00
9764;BME280;4921;43.214;27.936;2022-07-03T08:17:12;101419.38;;;25.92;100.00
9764;BME280;4921;43.214;27.936;2022-07-03T08:19:41;101428.25;;;25.80;100.00
9764;BME280;4921;43.214;27.936;2022-07-03T08:22:08;101426.19;;;25.82;100.00
9764;BME280;4921;43.214;27.936;2022-07-03T08:24:35;101421.66;;;25.89;100.00
9764;BME280;4921;43.214;27.936;2022-07-03T08:27:03;101424.19;;;26.03;100.00
9764;BME280;4921;43.214;27.936;2022-07-03T08:29:31;101415.75;;;26.13;100.00
9764;BME280;4921;43.214;27.936;2022-07-03T08:31:58;101415.78;;;26.26;100.00
9764;BME280;4921;43.214;27.936;2022-07-03T08:34:25;101423.25;;;26.30;100.00
9764;BME280;4921;43.214;27.936;2022-07-03T08:36:53;101426.47;;;26.06;100.00
9764;BME280;4921;43.214;27.936;2022-07-03T08:39:20;101413.41;;;26.03;100.00
9764;BME280;4921;43.214;27.936;2022-07-03T08:41:48;101424.88;;;26.18;100.00
9764;BME280;4921;43.214;27.936;2022-07-03T08:44:17;101425.34;;;26.28;100.00
9764;BME280;4921;43.214;27.936;2022-07-03T08:46:47;101428.00;;;26.22;100.00
9764;BME280;4921;43.214;27.936;2022-07-03T08:49:16;101426.78;;;26.24;100.00
9764;BME280;4921;43.214;27.936;2022-07-03T08:51:45;101430.91;;;26.20;100.00
9764;BME280;4921;43.214;27.936;2022-07-03T08:54:14;101419.47;;;26.18;100.00
9764;BME280;4921;43.214;27.936;2022-07-03T08:56:42;101428.03;;;26.35;100.00
9764;BME280;4921;43.214;27.936;2022-07-03T08:59:14;101424.09;;;26.24;100.00
9764;BME280;4921;43.214;27.936;2022-07-03T09:02:02;101432.81;;;26.33;100.00
9764;BME280;4921;43.214;27.936;2022-07-03T09:04:38;101426.41;;;26.54;100.00
9764;BME280;4921;43.214;27.936;2022-07-03T09:07:07;101423.06;;;26.52;100.00
9764;BME280;4921;43.214;27.936;2022-07-03T09:09:36;101420.78;;;26.55;100.00
9764;BME280;4921;43.214;27.936;2022-07-03T09:12:17;101422.03;;;26.72;100.00
9764;BME280;4921;43.214;27.936;2022-07-03T09:14:48;101427.47;;;26.79;100.00
9764;BME280;4921;43.214;27.936;2022-07-03T09:17:18;101428.47;;;26.71;100.00
9764;BME280;4921;43.214;27.936;2022-07-03T09:19:47;101426.44;;;26.73;100.00
9764;BME280;4921;43.214;27.936;2022-07-03T09:22:27;101439.50;;;26.89;100.00
9764;BME280;4921;43.214;27.936;2022-07-03T09:25:05;101430.75;;;27.07;100.00
9764;BME280;4921;43.214;27.936;2022-07-03T09:27:34;101437.38;;;27.24;100.00
9764;BME280;4921;43.214;27.936;2022-07-03T09:30:03;101441.94;;;27.43;99.57
9764;BME280;4921;43.214;27.936;2022-07-03T09:32:32;101436.09;;;27.59;100.00
9764;BME280;4921;43.214;27.936;2022-07-03T09:35:20;101429.25;;;27.44;90.06
9764;BME280;4921;43.214;27.936;2022-07-03T09:37:49;101428.47;;;27.30;94.89
9764;BME280;4921;43.214;27.936;2022-07-03T09:40:19;101424.09;;;27.29;87.41
9764;BME280;4921;43.214;27.936;2022-07-03T09:42:59;101434.50;;;27.39;87.70
9764;BME280;4921;43.214;27.936;2022-07-03T09:45:27;101431.94;;;27.50;83.94
9764;BME280;4921;43.214;27.936;2022-07-03T09:47:54;101433.28;;;27.85;85.09
9764;BME280;4921;43.214;27.936;2022-07-03T09:50:21;101428.44;;;27.94;87.40
9764;BME280;4921;43.214;27.936;2022-07-03T09:52:48;101424.38;;;27.72;75.88
9764;BME280;4921;43.214;27.936;2022-07-03T09:55:18;101422.38;;;27.54;83.28
9764;BME280;4921;43.214;27.936;2022-07-03T09:57:58;101430.66;;;27.66;80.71
9764;BME280;4921;43.214;27.936;2022-07-03T10:00:26;101421.59;;;27.91;88.09
9764;BME280;4921;43.214;27.936;2022-07-03T10:02:58;101426.34;;;28.03;83.42
9764;BME280;4921;43.214;27.936;2022-07-03T10:05:27;101417.34;;;28.15;82.75
9764;BME280;4921;43.214;27.936;2022-07-03T10:07:56;101415.41;;;28.22;72.41
9764;BME280;4921;43.214;27.936;2022-07-03T10:10:26;101420.09;;;28.02;67.97
9764;BME280;4921;43.214;27.936;2022-07-03T10:12:54;101416.75;;;28.07;75.67
9764;BME280;4921;43.214;27.936;2022-07-03T10:15:22;101417.84;;;28.30;74.87
9764;BME280;4921;43.214;27.936;2022-07-03T10:17:50;101418.44;;;28.08;70.18
9764;BME280;4921;43.214;27.936;2022-07-03T10:20:24;101418.63;;;28.06;73.43
9764;BME280;4921;43.214;27.936;2022-07-03T10:22:52;101413.59;;;28.16;74.08
9764;BME280;4921;43.214;27.936;2022-07-03T10:25:20;101408.34;;;28.52;75.32
9764;BME280;4921;43.214;27.936;2022-07-03T10:27:48;101409.78;;;28.80;74.70
9764;BME280;4921;43.214;27.936;2022-07-03T10:30:18;101403.09;;;28.82;74.16
9764;BME280;4921;43.214;27.936;2022-07-03T10:32:46;101400.78;;;28.86;75.45
9764;BME280;4921;43.214;27.936;2022-07-03T10:35:16;101401.22;;;28.83;71.77
9764;BME280;4921;43.214;27.936;2022-07-03T10:38:19;101399.06;;;28.66;64.53
9764;BME280;4921;43.214;27.936;2022-07-03T10:40:54;101397.56;;;28.46;68.89
9764;BME280;4921;43.214;27.936;2022-07-03T10:43:44;101391.72;;;28.42;61.67
9764;BME280;4921;43.214;27.936;2022-07-03T10:46:50;101390.84;;;27.86;67.54
9764;BME280;4921;43.214;27.936;2022-07-03T10:49:17;101390.19;;;27.97;68.08
9764;BME280;4921;43.214;27.936;2022-07-03T10:51:56;101384.91;;;27.64;69.33
9764;BME280;4921;43.214;27.936;2022-07-03T10:54:25;101381.03;;;27.47;67.45
9764;BME280;4921;43.214;27.936;2022-07-03T10:57:19;101384.38;;;27.49;66.81
9764;BME280;4921;43.214;27.936;2022-07-03T11:00:07;101387.06;;;27.49;70.03
9764;BME280;4921;43.214;27.936;2022-07-03T11:02:37;101377.50;;;27.47;69.91
9764;BME280;4921;43.214;27.936;2022-07-03T11:05:13;101378.34;;;27.47;71.85
9764;BME280;4921;43.214;27.936;2022-07-03T11:10:32;101382.22;;;27.64;65.87
9764;BME280;4921;43.214;27.936;2022-07-03T11:13:02;101375.63;;;27.47;71.34
9764;BME280;4921;43.214;27.936;2022-07-03T11:15:33;101376.22;;;27.56;71.83
9764;BME280;4921;43.214;27.936;2022-07-03T11:18:16;101371.28;;;27.40;75.24
9764;BME280;4921;43.214;27.936;2022-07-03T11:24:14;101363.06;;;27.66;70.10
9764;BME280;4921;43.214;27.936;2022-07-03T11:26:45;101368.16;;;27.87;71.11
9764;BME280;4921;43.214;27.936;2022-07-03T11:29:28;101368.16;;;27.43;66.29
9764;BME280;4921;43.214;27.936;2022-07-03T11:31:56;101375.03;;;27.32;65.75
9764;BME280;4921;43.214;27.936;2022-07-03T11:34:43;101367.00;;;27.12;69.02
9764;BME280;4921;43.214;27.936;2022-07-03T11:37:11;101368.19;;;27.30;68.16
9764;BME280;4921;43.214;27.936;2022-07-03T11:39:39;101355.91;;;27.34;71.98
9764;BME280;4921;43.214;27.936;2022-07-03T11:42:06;101353.03;;;27.22;73.93
9764;BME280;4921;43.214;27.936;2022-07-03T11:44:33;101351.78;;;27.25;74.98
9764;BME280;4921;43.214;27.936;2022-07-03T11:47:02;101356.31;;;27.31;74.74
9764;BME280;4921;43.214;27.936;2022-07-03T11:49:29;101347.41;;;27.37;72.10
9764;BME280;4921;43.214;27.936;2022-07-03T11:52:00;101347.25;;;27.05;68.60
9764;BME280;4921;43.214;27.936;2022-07-03T11:54:30;101344.59;;;26.86;63.78
9764;BME280;4921;43.214;27.936;2022-07-03T11:56:59;101344.91;;;27.22;70.06
9764;BME280;4921;43.214;27.936;2022-07-03T11:59:26;101354.53;;;27.05;68.14
9764;BME280;4921;43.214;27.936;2022-07-03T12:02:02;101352.06;;;26.97;65.74
9764;BME280;4921;43.214;27.936;2022-07-03T12:04:31;101353.09;;;26.89;64.92
9764;BME280;4921;43.214;27.936;2022-07-03T12:06:59;101356.00;;;27.01;66.14
9764;BME280;4921;43.214;27.936;2022-07-03T12:09:28;101346.91;;;26.82;64.87
9764;BME280;4921;43.214;27.936;2022-07-03T12:11:58;101340.66;;;26.69;62.99
9764;BME280;4921;43.214;27.936;2022-07-03T12:14:37;101345.06;;;26.76;64.94
9764;BME280;4921;43.214;27.936;2022-07-03T12:17:06;101351.00;;;27.04;66.37
9764;BME280;4921;43.214;27.936;2022-07-03T12:19:34;101347.28;;;26.99;64.31
9764;BME280;4921;43.214;27.936;2022-07-03T12:22:03;101355.59;;;26.71;68.04
9764;BME280;4921;43.214;27.936;2022-07-03T12:24:30;101346.28;;;26.80;69.69
9764;BME280;4921;43.214;27.936;2022-07-03T12:27:02;101339.41;;;26.91;68.97
9764;BME280;4921;43.214;27.936;2022-07-03T12:29:29;101345.19;;;27.07;69.23
9764;BME280;4921;43.214;27.936;2022-07-03T12:31:57;101347.19;;;27.25;62.59
9764;BME280;4921;43.214;27.936;2022-07-03T12:34:25;101346.56;;;27.30;64.70
9764;BME280;4921;43.214;27.936;2022-07-03T12:36:57;101343.13;;;26.96;61.88
9764;BME280;4921;43.214;27.936;2022-07-03T12:39:40;101349.81;;;26.74;62.00
9764;BME280;4921;43.214;27.936;2022-07-03T12:42:16;101338.56;;;26.64;63.51
9764;BME280;4921;43.214;27.936;2022-07-03T12:44:54;101340.66;;;26.62;67.04
9764;BME280;4921;43.214;27.936;2022-07-03T12:47:23;101344.59;;;26.66;67.46
9764;BME280;4921;43.214;27.936;2022-07-03T12:50:02;101348.34;;;26.59;69.33
9764;BME280;4921;43.214;27.936;2022-07-03T12:52:30;101337.72;;;26.70;70.69
9764;BME280;4921;43.214;27.936;2022-07-03T12:54:58;101335.03;;;26.90;68.52
9764;BME280;4921;43.214;27.936;2022-07-03T12:57:26;101328.19;;;26.81;69.10
9764;BME280;4921;43.214;27.936;2022-07-03T13:00:12;101332.78;;;26.80;64.46
9764;BME280;4921;43.214;27.936;2022-07-03T13:02:43;101334.88;;;26.78;66.04
9764;BME280;4921;43.214;27.936;2022-07-03T13:05:17;101330.69;;;26.95;65.33
9764;BME280;4921;43.214;27.936;2022-07-03T13:07:47;101322.59;;;26.89;69.59
9764;BME280;4921;43.214;27.936;2022-07-03T13:10:15;101320.75;;;26.76;69.59
9764;BME280;4921;43.214;27.936;2022-07-03T13:12:46;101324.69;;;26.74;67.29
9764;BME280;4921;43.214;27.936;2022-07-03T13:15:14;101324.25;;;26.64;68.55
9764;BME280;4921;43.214;27.936;2022-07-03T13:17:55;101318.03;;;26.70;67.77
9764;BME280;4921;43.214;27.936;2022-07-03T13:20:25;101318.84;;;26.64;65.03
9764;BME280;4921;43.214;27.936;2022-07-03T13:22:54;101316.75;;;26.72;67.02